sensor_id;sensor_type;location;lat;lon;timestamp;temperature;humidity
38118;DHT22;23928;47.562;7.508;2023-11-19T00:00:36;7.90;99.90
38118;DHT22;23928;47.562;7.508;2023-11-19T00:03:02;7.90;99.90
38118;DHT22;23928;47.562;7.508;2023-11-19T00:05:27;8.00;99.90
38118;DHT22;23928;47.562;7.508;2023-11-19T00:07:53;7.90;99.90
38118;DHT22;23928;47.562;7.508;2023-11-19T00:10:20;8.00;99.90
38118;DHT22;23928;47.562;7.508;2023-11-19T00:12:48;7.90;99.90
38118;DHT22;23928;47.562;7.508;2023-11-19T00:15:14;7.90;99.90
38118;DHT22;23928;47.562;7.508;2023-11-19T00:17:41;8.00;99.90
38118;DHT22;23928;47.562;7.508;2023-11-19T00:20:16;8.00;99.90
38118;DHT22;23928;47.562;7.508;2023-11-19T00:22:43;8.00;99.90
38118;DHT22;23928;47.562;7.508;2023-11-19T00:25:09;8.10;99.90
38118;DHT22;23928;47.562;7.508;2023-11-19T00:27:35;8.20;99.90
38118;DHT22;23928;47.562;7.508;2023-11-19T00:30:01;8.10;99.90
38118;DHT22;23928;47.562;7.508;2023-11-19T00:32:27;8.10;99.90
38118;DHT22;23928;47.562;7.508;2023-11-19T00:34:53;8.10;99.90
38118;DHT22;23928;47.562;7.508;2023-11-19T00:37:18;8.20;99.90
38118;DHT22;23928;47.562;7.508;2023-11-19T00:39:44;8.20;99.90
38118;DHT22;23928;47.562;7.508;2023-11-19T00:42:11;8.20;99.90
38118;DHT22;23928;47.562;7.508;2023-11-19T00:44:36;8.10;99.90
38118;DHT22;23928;47.562;7.508;2023-11-19T00:47:02;8.10;99.90
38118;DHT22;23928;47.562;7.508;2023-11-19T00:49:28;8.10;99.90
38118;DHT22;23928;47.562;7.508;2023-11-19T00:51:54;8.20;99.90
38118;DHT22;23928;47.562;7.508;2023-11-19T00:54:20;8.10;99.90
38118;DHT22;23928;47.562;7.508;2023-11-19T00:56:46;8.10;99.90
38118;DHT22;23928;47.562;7.508;2023-11-19T00:59:11;8.10;99.90
38118;DHT22;23928;47.562;7.508;2023-11-19T01:01:37;8.10;99.90
38118;DHT22;23928;47.562;7.508;2023-11-19T01:04:03;8.20;99.90
38118;DHT22;23928;47.562;7.508;2023-11-19T01:06:29;8.20;99.90
38118;DHT22;23928;47.562;7.508;2023-11-19T01:08:55;8.00;99.90
38118;DHT22;23928;47.562;7.508;2023-11-19T01:11:23;8.10;99.90
38118;DHT22;23928;47.562;7.508;2023-11-19T01:13:49;8.10;99.90
38118;DHT22;23928;47.562;7.508;2023-11-19T01:16:15;8.10;99.90
38118;DHT22;23928;47.562;7.508;2023-11-19T01:18:42;8.00;99.90
38118;DHT22;23928;47.562;7.508;2023-11-19T01:21:08;8.10;99.90
38118;DHT22;23928;47.562;7.508;2023-11-19T01:23:34;8.30;99.90
38118;DHT22;23928;47.562;7.508;2023-11-19T01:26:00;8.20;99.90
38118;DHT22;23928;47.562;7.508;2023-11-19T01:28:25;8.20;99.90
38118;DHT22;23928;47.562;7.508;2023-11-19T01:30:51;8.10;99.90
38118;DHT22;23928;47.562;7.508;2023-11-19T01:33:17;8.20;99.90
38118;DHT22;23928;47.562;7.508;2023-11-19T01:35:42;8.10;99.90
38118;DHT22;23928;47.562;7.508;2023-11-19T01:38:08;8.20;99.90
38118;DHT22;23928;47.562;7.508;2023-11-19T01:40:34;8.10;99.90
38118;DHT22;23928;47.562;7.508;2023-11-19T01:43:02;8.30;99.90
38118;DHT22;23928;47.562;7.508;2023-11-19T01:45:28;8.50;99.90
38118;DHT22;23928;47.562;7.508;2023-11-19T01:47:56;8.40;99.90
38118;DHT22;23928;47.562;7.508;2023-11-19T01:50:23;8.60;99.90
38118;DHT22;23928;47.562;7.508;2023-11-19T01:52:53;8.50;99.90
38118;DHT22;23928;47.562;7.508;2023-11-19T01:55:20;8.40;99.90
38118;DHT22;23928;47.562;7.508;2023-11-19T01:57:47;8.60;99.90
38118;DHT22;23928;47.562;7.508;2023-11-19T02:00:15;8.50;99.90
38118;DHT22;23928;47.562;7.508;2023-11-19T02:02:42;8.40;99.90
38118;DHT22;23928;47.562;7.508;2023-11-19T02:05:09;8.50;99.90
38118;DHT22;23928;47.562;7.508;2023-11-19T02:07:34;8.40;99.90
38118;DHT22;23928;47.562;7.508;2023-11-19T02:10:00;8.40;99.90
38118;DHT22;23928;47.562;7.508;2023-11-19T02:12:28;8.50;99.90
38118;DHT22;23928;47.562;7.508;2023-11-19T02:14:54;8.40;99.90
38118;DHT22;23928;47.562;7.508;2023-11-19T02:17:29;8.50;99.90
38118;DHT22;23928;47.562;7.508;2023-11-19T02:20:00;8.50;99.90
38118;DHT22;23928;47.562;7.508;2023-11-19T02:22:26;8.60;99.90
38118;DHT22;23928;47.562;7.508;2023-11-19T02:24:57;8.50;99.90
38118;DHT22;23928;47.562;7.508;2023-11-19T02:30:11;8.50;99.90
38118;DHT22;23928;47.562;7.508;2023-11-19T02:32:36;8.50;99.90
38118;DHT22;23928;47.562;7.508;2023-11-19T02:35:06;8.50;99.90
38118;DHT22;23928;47.562;7.508;2023-11-19T02:37:34;8.50;99.90
38118;DHT22;23928;47.562;7.508;2023-11-19T02:39:59;8.50;99.90
38118;DHT22;23928;47.562;7.508;2023-11-19T02:42:34;8.40;99.90
38118;DHT22;23928;47.562;7.508;2023-11-19T02:45:01;8.30;99.90
38118;DHT22;23928;47.562;7.508;2023-11-19T02:47:27;8.40;99.90
38118;DHT22;23928;47.562;7.508;2023-11-19T02:49:55;8.40;99.90
38118;DHT22;23928;47.562;7.508;2023-11-19T02:52:21;8.40;99.90
38118;DHT22;23928;47.562;7.508;2023-11-19T02:54:47;8.50;99.90
38118;DHT22;23928;47.562;7.508;2023-11-19T02:57:12;8.50;99.90
38118;DHT22;23928;47.562;7.508;2023-11-19T02:59:39;8.60;99.90
38118;DHT22;23928;47.562;7.508;2023-11-19T03:02:07;8.50;99.90
38118;DHT22;23928;47.562;7.508;2023-11-19T03:04:39;8.50;99.90
38118;DHT22;23928;47.562;7.508;2023-11-19T03:07:11;8.60;99.90
38118;DHT22;23928;47.562;7.508;2023-11-19T03:09:37;8.70;99.90
38118;DHT22;23928;47.562;7.508;2023-11-19T03:12:06;8.70;99.90
38118;DHT22;23928;47.562;7.508;2023-11-19T03:14:33;8.80;99.90
38118;DHT22;23928;47.562;7.508;2023-11-19T03:17:00;8.80;99.90
38118;DHT22;23928;47.562;7.508;2023-11-19T03:19:25;8.90;99.90
38118;DHT22;23928;47.562;7.508;2023-11-19T03:21:52;8.80;99.90
38118;DHT22;23928;47.562;7.508;2023-11-19T03:24:17;8.70;99.90
38118;DHT22;23928;47.562;7.508;2023-11-19T03:26:48;8.80;99.90
38118;DHT22;23928;47.562;7.508;2023-11-19T03:29:15;8.70;99.90
38118;DHT22;23928;47.562;7.508;2023-11-19T03:31:44;8.60;99.90
38118;DHT22;23928;47.562;7.508;2023-11-19T03:34:12;8.80;99.90
38118;DHT22;23928;47.562;7.508;2023-11-19T03:36:38;8.80;99.90
38118;DHT22;23928;47.562;7.508;2023-11-19T03:39:03;8.80;99.90
38118;DHT22;23928;47.562;7.508;2023-11-19T03:41:29;8.80;99.90
38118;DHT22;23928;47.562;7.508;2023-11-19T03:43:55;8.60;99.90
38118;DHT22;23928;47.562;7.508;2023-11-19T03:46:21;8.70;99.90
38118;DHT22;23928;47.562;7.508;2023-11-19T03:48:48;8.70;99.90
38118;DHT22;23928;47.562;7.508;2023-11-19T03:51:14;8.70;99.90
38118;DHT22;23928;47.562;7.508;2023-11-19T03:53:46;8.60;99.90
38118;DHT22;23928;47.562;7.508;2023-11-19T03:56:12;8.60;99.90
38118;DHT22;23928;47.562;7.508;2023-11-19T03:58:38;8.60;99.90
38118;DHT22;23928;47.562;7.508;2023-11-19T04:01:05;8.70;99.90
38118;DHT22;23928;47.562;7.508;2023-11-19T04:03:31;8.70;99.90
38118;DHT22;23928;47.562;7.508;2023-11-19T04:05:56;8.70;99.90
38118;DHT22;23928;47.562;7.508;2023-11-19T04:08:22;8.80;99.90
38118;DHT22;23928;47.562;7.508;2023-11-19T04:10:48;8.80;99.90
38118;DHT22;23928;47.562;7.508;2023-11-19T04:13:14;8.80;99.90
38118;DHT22;23928;47.562;7.508;2023-11-19T04:15:39;8.70;99.90
38118;DHT22;23928;47.562;7.508;2023-11-19T04:18:05;8.80;99.90
38118;DHT22;23928;47.562;7.508;2023-11-19T04:20:31;8.90;99.90
38118;DHT22;23928;47.562;7.508;2023-11-19T04:22:57;8.70;99.90
38118;DHT22;23928;47.562;7.508;2023-11-19T04:25:23;8.60;99.90
38118;DHT22;23928;47.562;7.508;2023-11-19T04:27:51;8.80;99.90
38118;DHT22;23928;47.562;7.508;2023-11-19T04:30:17;8.70;99.90
38118;DHT22;23928;47.562;7.508;2023-11-19T04:32:44;8.60;99.90
38118;DHT22;23928;47.562;7.508;2023-11-19T04:35:09;8.60;99.90
38118;DHT22;23928;47.562;7.508;2023-11-19T04:37:36;8.70;99.90
38118;DHT22;23928;47.562;7.508;2023-11-19T04:40:02;8.80;99.90
38118;DHT22;23928;47.562;7.508;2023-11-19T04:42:27;8.70;99.90
38118;DHT22;23928;47.562;7.508;2023-11-19T04:44:53;8.70;99.90
38118;DHT22;23928;47.562;7.508;2023-11-19T04:47:19;8.80;99.90
38118;DHT22;23928;47.562;7.508;2023-11-19T04:49:44;8.80;99.90
38118;DHT22;23928;47.562;7.508;2023-11-19T04:52:10;8.80;99.90
38118;DHT22;23928;47.562;7.508;2023-11-19T04:54:41;8.70;99.90
38118;DHT22;23928;47.562;7.508;2023-11-19T04:57:07;8.90;99.90
38118;DHT22;23928;47.562;7.508;2023-11-19T04:59:36;8.90;99.90
38118;DHT22;23928;47.562;7.508;2023-11-19T05:02:01;8.90;99.90
38118;DHT22;23928;47.562;7.508;2023-11-19T05:04:27;8.90;99.90
38118;DHT22;23928;47.562;7.508;2023-11-19T05:06:52;8.90;99.90
38118;DHT22;23928;47.562;7.508;2023-11-19T05:09:18;8.90;99.90
38118;DHT22;23928;47.562;7.508;2023-11-19T05:11:44;8.90;99.90
38118;DHT22;23928;47.562;7.508;2023-11-19T05:14:10;9.10;99.90
38118;DHT22;23928;47.562;7.508;2023-11-19T05:16:35;9.00;99.90
38118;DHT22;23928;47.562;7.508;2023-11-19T05:19:01;9.00;99.90
38118;DHT22;23928;47.562;7.508;2023-11-19T05:21:26;9.10;99.90
38118;DHT22;23928;47.562;7.508;2023-11-19T05:23:52;9.10;99.90
38118;DHT22;23928;47.562;7.508;2023-11-19T05:26:21;9.20;99.90
38118;DHT22;23928;47.562;7.508;2023-11-19T05:28:47;9.20;99.90
38118;DHT22;23928;47.562;7.508;2023-11-19T05:31:13;9.10;99.90
38118;DHT22;23928;47.562;7.508;2023-11-19T05:33:39;9.20;99.90
38118;DHT22;23928;47.562;7.508;2023-11-19T05:36:05;9.20;99.90
38118;DHT22;23928;47.562;7.508;2023-11-19T05:38:31;9.20;99.90
38118;DHT22;23928;47.562;7.508;2023-11-19T05:40:56;9.30;99.90
38118;DHT22;23928;47.562;7.508;2023-11-19T05:43:22;9.30;99.90
38118;DHT22;23928;47.562;7.508;2023-11-19T05:45:48;9.30;99.90
38118;DHT22;23928;47.562;7.508;2023-11-19T05:48:13;9.40;99.90
38118;DHT22;23928;47.562;7.508;2023-11-19T05:50:39;9.60;99.90
38118;DHT22;23928;47.562;7.508;2023-11-19T05:53:05;10.20;99.90
38118;DHT22;23928;47.562;7.508;2023-11-19T05:55:34;10.30;99.90
38118;DHT22;23928;47.562;7.508;2023-11-19T05:58:01;10.20;99.90
38118;DHT22;23928;47.562;7.508;2023-11-19T06:00:27;10.70;99.90
38118;DHT22;23928;47.562;7.508;2023-11-19T06:02:52;10.60;99.90
38118;DHT22;23928;47.562;7.508;2023-11-19T06:05:18;10.70;99.90
38118;DHT22;23928;47.562;7.508;2023-11-19T06:07:44;10.70;99.90
38118;DHT22;23928;47.562;7.508;2023-11-19T06:10:10;10.80;99.90
38118;DHT22;23928;47.562;7.508;2023-11-19T06:12:36;10.80;99.90
38118;DHT22;23928;47.562;7.508;2023-11-19T06:15:07;10.70;99.90
38118;DHT22;23928;47.562;7.508;2023-11-19T06:17:34;10.80;99.90
38118;DHT22;23928;47.562;7.508;2023-11-19T06:19:59;10.90;99.90
38118;DHT22;23928;47.562;7.508;2023-11-19T06:22:25;10.90;99.90
38118;DHT22;23928;47.562;7.508;2023-11-19T06:24:51;10.90;99.90
38118;DHT22;23928;47.562;7.508;2023-11-19T06:27:16;10.80;99.90
38118;DHT22;23928;47.562;7.508;2023-11-19T06:29:42;11.00;99.90
38118;DHT22;23928;47.562;7.508;2023-11-19T06:32:07;11.00;99.90
38118;DHT22;23928;47.562;7.508;2023-11-19T06:34:34;11.00;99.90
38118;DHT22;23928;47.562;7.508;2023-11-19T06:36:59;11.10;99.90
38118;DHT22;23928;47.562;7.508;2023-11-19T06:39:25;11.00;99.90
38118;DHT22;23928;47.562;7.508;2023-11-19T06:41:51;11.00;99.90
38118;DHT22;23928;47.562;7.508;2023-11-19T06:44:17;11.10;99.90
38118;DHT22;23928;47.562;7.508;2023-11-19T06:46:43;11.00;99.90
38118;DHT22;23928;47.562;7.508;2023-11-19T06:49:08;11.00;99.90
38118;DHT22;23928;47.562;7.508;2023-11-19T06:51:34;11.10;99.90
38118;DHT22;23928;47.562;7.508;2023-11-19T06:54:00;11.00;99.90
38118;DHT22;23928;47.562;7.508;2023-11-19T06:56:26;11.00;99.90
38118;DHT22;23928;47.562;7.508;2023-11-19T06:58:52;11.20;99.90
38118;DHT22;23928;47.562;7.508;2023-11-19T07:01:19;11.40;99.90
38118;DHT22;23928;47.562;7.508;2023-11-19T07:03:45;11.50;99.90
38118;DHT22;23928;47.562;7.508;2023-11-19T07:06:11;11.60;99.90
38118;DHT22;23928;47.562;7.508;2023-11-19T07:08:43;11.50;99.90
38118;DHT22;23928;47.562;7.508;2023-11-19T07:11:12;11.50;99.90
38118;DHT22;23928;47.562;7.508;2023-11-19T07:13:39;11.40;99.90
38118;DHT22;23928;47.562;7.508;2023-11-19T07:16:05;11.40;99.90
38118;DHT22;23928;47.562;7.508;2023-11-19T07:18:31;11.40;99.90
38118;DHT22;23928;47.562;7.508;2023-11-19T07:20:57;11.30;99.90
38118;DHT22;23928;47.562;7.508;2023-11-19T07:23:23;11.40;99.90
38118;DHT22;23928;47.562;7.508;2023-11-19T07:25:48;11.40;99.90
38118;DHT22;23928;47.562;7.508;2023-11-19T07:28:15;11.40;99.90
38118;DHT22;23928;47.562;7.508;2023-11-19T07:30:42;11.40;99.90
38118;DHT22;23928;47.562;7.508;2023-11-19T07:33:07;11.40;99.90
38118;DHT22;23928;47.562;7.508;2023-11-19T07:35:33;11.40;99.90
38118;DHT22;23928;47.562;7.508;2023-11-19T07:37:59;11.50;99.90
38118;DHT22;23928;47.562;7.508;2023-11-19T07:40:25;11.50;99.90
38118;DHT22;23928;47.562;7.508;2023-11-19T07:42:50;11.50;99.90
38118;DHT22;23928;47.562;7.508;2023-11-19T07:45:16;11.50;99.90
38118;DHT22;23928;47.562;7.508;2023-11-19T07:47:43;11.60;99.90
38118;DHT22;23928;47.562;7.508;2023-11-19T07:50:10;11.60;99.90
38118;DHT22;23928;47.562;7.508;2023-11-19T07:52:38;11.60;99.90
38118;DHT22;23928;47.562;7.508;2023-11-19T07:55:04;11.80;99.90
38118;DHT22;23928;47.562;7.508;2023-11-19T07:57:30;11.70;99.90
38118;DHT22;23928;47.562;7.508;2023-11-19T07:59:57;11.80;99.90
38118;DHT22;23928;47.562;7.508;2023-11-19T08:02:23;11.80;99.90
38118;DHT22;23928;47.562;7.508;2023-11-19T08:04:49;11.90;99.90
38118;DHT22;23928;47.562;7.508;2023-11-19T08:07:17;12.00;99.90
38118;DHT22;23928;47.562;7.508;2023-11-19T08:09:43;12.10;99.90
38118;DHT22;23928;47.562;7.508;2023-11-19T08:12:09;12.20;99.90
38118;DHT22;23928;47.562;7.508;2023-11-19T08:14:35;12.20;99.90
38118;DHT22;23928;47.562;7.508;2023-11-19T08:17:01;12.10;99.90
38118;DHT22;23928;47.562;7.508;2023-11-19T08:19:26;12.30;99.90
38118;DHT22;23928;47.562;7.508;2023-11-19T08:21:52;12.30;99.90
38118;DHT22;23928;47.562;7.508;2023-11-19T08:24:17;12.40;99.90
38118;DHT22;23928;47.562;7.508;2023-11-19T08:26:43;12.30;99.90
38118;DHT22;23928;47.562;7.508;2023-11-19T08:29:08;12.50;99.90
38118;DHT22;23928;47.562;7.508;2023-11-19T08:31:34;12.40;99.90
38118;DHT22;23928;47.562;7.508;2023-11-19T08:34:00;12.40;99.90
38118;DHT22;23928;47.562;7.508;2023-11-19T08:36:26;12.40;99.90
38118;DHT22;23928;47.562;7.508;2023-11-19T08:38:53;12.40;99.90
38118;DHT22;23928;47.562;7.508;2023-11-19T08:41:19;12.40;99.90
38118;DHT22;23928;47.562;7.508;2023-11-19T08:43:45;12.40;99.90
38118;DHT22;23928;47.562;7.508;2023-11-19T08:46:11;12.60;99.90
38118;DHT22;23928;47.562;7.508;2023-11-19T08:48:37;12.60;99.90
38118;DHT22;23928;47.562;7.508;2023-11-19T08:51:03;12.50;99.90
38118;DHT22;23928;47.562;7.508;2023-11-19T08:53:30;12.50;99.90
38118;DHT22;23928;47.562;7.508;2023-11-19T08:55:55;12.40;99.90
38118;DHT22;23928;47.562;7.508;2023-11-19T08:58:21;12.40;99.90
38118;DHT22;23928;47.562;7.508;2023-11-19T09:00:47;12.40;99.90
38118;DHT22;23928;47.562;7.508;2023-11-19T09:03:12;12.50;99.90
38118;DHT22;23928;47.562;7.508;2023-11-19T09:05:38;12.40;99.90
38118;DHT22;23928;47.562;7.508;2023-11-19T09:08:04;12.40;99.90
38118;DHT22;23928;47.562;7.508;2023-11-19T09:10:30;12.40;99.90
38118;DHT22;23928;47.562;7.508;2023-11-19T09:12:55;12.40;99.90
38118;DHT22;23928;47.562;7.508;2023-11-19T09:15:21;12.30;99.90
38118;DHT22;23928;47.562;7.508;2023-11-19T09:17:46;12.30;99.90
38118;DHT22;23928;47.562;7.508;2023-11-19T09:20:12;12.30;99.90
38118;DHT22;23928;47.562;7.508;2023-11-19T09:22:41;12.30;99.90
38118;DHT22;23928;47.562;7.508;2023-11-19T09:25:07;12.30;99.90
38118;DHT22;23928;47.562;7.508;2023-11-19T09:27:33;12.30;99.90
38118;DHT22;23928;47.562;7.508;2023-11-19T09:29:58;12.30;99.90
38118;DHT22;23928;47.562;7.508;2023-11-19T09:32:24;12.30;99.90
38118;DHT22;23928;47.562;7.508;2023-11-19T09:34:51;12.40;99.90
38118;DHT22;23928;47.562;7.508;2023-11-19T09:37:16;12.40;99.90
38118;DHT22;23928;47.562;7.508;2023-11-19T09:39:42;12.40;99.90
38118;DHT22;23928;47.562;7.508;2023-11-19T09:42:11;12.40;99.90
38118;DHT22;23928;47.562;7.508;2023-11-19T09:44:38;12.40;99.90
38118;DHT22;23928;47.562;7.508;2023-11-19T09:47:05;12.40;99.90
38118;DHT22;23928;47.562;7.508;2023-11-19T09:49:32;12.50;99.90
38118;DHT22;23928;47.562;7.508;2023-11-19T09:51:58;12.50;99.90
38118;DHT22;23928;47.562;7.508;2023-11-19T09:54:24;12.60;99.90
38118;DHT22;23928;47.562;7.508;2023-11-19T09:56:50;12.70;99.90
38118;DHT22;23928;47.562;7.508;2023-11-19T09:59:16;12.80;99.90
38118;DHT22;23928;47.562;7.508;2023-11-19T10:01:42;12.80;99.90
38118;DHT22;23928;47.562;7.508;2023-11-19T10:04:09;12.90;99.90
38118;DHT22;23928;47.562;7.508;2023-11-19T10:06:37;13.00;99.90
38118;DHT22;23928;47.562;7.508;2023-11-19T10:09:02;12.90;99.90
38118;DHT22;23928;47.562;7.508;2023-11-19T10:11:30;13.00;99.90
38118;DHT22;23928;47.562;7.508;2023-11-19T10:13:56;13.10;99.90
38118;DHT22;23928;47.562;7.508;2023-11-19T10:16:29;13.20;99.90
38118;DHT22;23928;47.562;7.508;2023-11-19T10:18:56;13.20;99.90
38118;DHT22;23928;47.562;7.508;2023-11-19T10:21:22;13.20;99.90
38118;DHT22;23928;47.562;7.508;2023-11-19T10:23:51;13.20;99.90
38118;DHT22;23928;47.562;7.508;2023-11-19T10:26:18;13.20;99.90
38118;DHT22;23928;47.562;7.508;2023-11-19T10:28:49;13.10;99.90
38118;DHT22;23928;47.562;7.508;2023-11-19T10:31:18;13.20;99.90
38118;DHT22;23928;47.562;7.508;2023-11-19T10:33:45;13.20;99.90
38118;DHT22;23928;47.562;7.508;2023-11-19T10:36:11;13.10;99.90
38118;DHT22;23928;47.562;7.508;2023-11-19T10:38:38;13.20;99.90
38118;DHT22;23928;47.562;7.508;2023-11-19T10:41:04;13.30;99.90
38118;DHT22;23928;47.562;7.508;2023-11-19T10:43:31;13.30;99.90
38118;DHT22;23928;47.562;7.508;2023-11-19T10:46:12;13.30;99.90
38118;DHT22;23928;47.562;7.508;2023-11-19T10:48:38;13.30;99.90
38118;DHT22;23928;47.562;7.508;2023-11-19T10:51:06;13.30;99.90
38118;DHT22;23928;47.562;7.508;2023-11-19T10:53:37;13.40;99.90
38118;DHT22;23928;47.562;7.508;2023-11-19T10:56:10;13.40;99.90
38118;DHT22;23928;47.562;7.508;2023-11-19T10:58:36;13.40;99.90
38118;DHT22;23928;47.562;7.508;2023-11-19T11:01:13;13.40;99.90
38118;DHT22;23928;47.562;7.508;2023-11-19T11:03:41;13.40;99.90
38118;DHT22;23928;47.562;7.508;2023-11-19T11:06:08;13.30;99.90
38118;DHT22;23928;47.562;7.508;2023-11-19T11:08:36;13.30;99.90
38118;DHT22;23928;47.562;7.508;2023-11-19T11:11:03;13.30;99.90
38118;DHT22;23928;47.562;7.508;2023-11-19T11:13:31;13.30;99.90
38118;DHT22;23928;47.562;7.508;2023-11-19T11:15:58;13.30;99.90
38118;DHT22;23928;47.562;7.508;2023-11-19T11:18:24;13.30;99.90
38118;DHT22;23928;47.562;7.508;2023-11-19T11:21:05;13.30;99.90
38118;DHT22;23928;47.562;7.508;2023-11-19T11:23:53;13.40;99.90
38118;DHT22;23928;47.562;7.508;2023-11-19T11:37:53;14.00;99.90
38118;DHT22;23928;47.562;7.508;2023-11-19T11:40:21;14.00;99.90
38118;DHT22;23928;47.562;7.508;2023-11-19T11:42:49;13.90;99.90
38118;DHT22;23928;47.562;7.508;2023-11-19T11:45:17;13.90;99.90
38118;DHT22;23928;47.562;7.508;2023-11-19T11:57:50;14.20;99.90
38118;DHT22;23928;47.562;7.508;2023-11-19T12:00:27;14.30;99.90
38118;DHT22;23928;47.562;7.508;2023-11-19T12:03:00;14.40;99.90
38118;DHT22;23928;47.562;7.508;2023-11-19T12:05:27;14.20;99.90
38118;DHT22;23928;47.562;7.508;2023-11-19T12:08:04;14.30;99.90
38118;DHT22;23928;47.562;7.508;2023-11-19T12:10:54;14.40;99.90
38118;DHT22;23928;47.562;7.508;2023-11-19T12:13:19;14.40;99.90
38118;DHT22;23928;47.562;7.508;2023-11-19T12:18:29;14.40;99.90
38118;DHT22;23928;47.562;7.508;2023-11-19T12:20:56;14.40;99.90
38118;DHT22;23928;47.562;7.508;2023-11-19T12:23:23;14.40;99.90
38118;DHT22;23928;47.562;7.508;2023-11-19T12:25:49;14.40;99.90
38118;DHT22;23928;47.562;7.508;2023-11-19T12:28:15;14.40;99.90
38118;DHT22;23928;47.562;7.508;2023-11-19T12:30:44;14.30;99.90
38118;DHT22;23928;47.562;7.508;2023-11-19T12:33:12;14.30;99.90
38118;DHT22;23928;47.562;7.508;2023-11-19T12:35:41;14.40;99.90
38118;DHT22;23928;47.562;7.508;2023-11-19T12:38:09;14.40;99.90
38118;DHT22;23928;47.562;7.508;2023-11-19T12:40:43;14.50;99.90
38118;DHT22;23928;47.562;7.508;2023-11-19T12:43:09;14.40;99.90
38118;DHT22;23928;47.562;7.508;2023-11-19T12:45:35;14.50;99.90
38118;DHT22;23928;47.562;7.508;2023-11-19T12:48:07;14.40;99.90
38118;DHT22;23928;47.562;7.508;2023-11-19T12:51:07;14.30;99.90
38118;DHT22;23928;47.562;7.508;2023-11-19T12:53:47;14.30;99.90
38118;DHT22;23928;47.562;7.508;2023-11-19T12:56:14;14.30;99.90
38118;DHT22;23928;47.562;7.508;2023-11-19T12:58:41;14.40;99.90
38118;DHT22;23928;47.562;7.508;2023-11-19T13:01:08;14.30;99.90
38118;DHT22;23928;47.562;7.508;2023-11-19T13:03:36;14.40;99.90
38118;DHT22;23928;47.562;7.508;2023-11-19T13:06:08;14.40;99.90
38118;DHT22;23928;47.562;7.508;2023-11-19T13:08:45;14.40;99.90
38118;DHT22;23928;47.562;7.508;2023-11-19T13:11:12;14.40;99.90
38118;DHT22;23928;47.562;7.508;2023-11-19T13:14:00;14.40;99.90
38118;DHT22;23928;47.562;7.508;2023-11-19T13:16:27;14.40;99.90
38118;DHT22;23928;47.562;7.508;2023-11-19T13:18:53;14.50;99.90
38118;DHT22;23928;47.562;7.508;2023-11-19T13:21:19;14.60;99.90
38118;DHT22;23928;47.562;7.508;2023-11-19T13:23:44;14.60;99.90
38118;DHT22;23928;47.562;7.508;2023-11-19T13:26:11;14.50;99.90
38118;DHT22;23928;47.562;7.508;2023-11-19T13:28:37;14.60;99.90
38118;DHT22;23928;47.562;7.508;2023-11-19T13:31:03;14.50;99.90
38118;DHT22;23928;47.562;7.508;2023-11-19T13:33:29;14.40;99.90
38118;DHT22;23928;47.562;7.508;2023-11-19T13:35:55;14.30;99.90
38118;DHT22;23928;47.562;7.508;2023-11-19T13:38:21;14.30;99.90
38118;DHT22;23928;47.562;7.508;2023-11-19T13:40:46;14.30;99.90
38118;DHT22;23928;47.562;7.508;2023-11-19T13:43:12;14.40;99.90
38118;DHT22;23928;47.562;7.508;2023-11-19T13:45:37;14.30;99.90
38118;DHT22;23928;47.562;7.508;2023-11-19T13:48:03;14.30;99.90
38118;DHT22;23928;47.562;7.508;2023-11-19T13:50:28;14.30;99.90
38118;DHT22;23928;47.562;7.508;2023-11-19T13:52:54;14.30;99.90
38118;DHT22;23928;47.562;7.508;2023-11-19T13:55:20;14.20;99.90
38118;DHT22;23928;47.562;7.508;2023-11-19T13:57:47;14.20;99.90
38118;DHT22;23928;47.562;7.508;2023-11-19T14:00:14;14.20;99.90
38118;DHT22;23928;47.562;7.508;2023-11-19T14:02:45;14.10;99.90
38118;DHT22;23928;47.562;7.508;2023-11-19T14:05:12;14.00;99.90
38118;DHT22;23928;47.562;7.508;2023-11-19T14:07:38;13.90;99.90
38118;DHT22;23928;47.562;7.508;2023-11-19T14:10:05;13.90;99.90
38118;DHT22;23928;47.562;7.508;2023-11-19T14:12:32;13.90;99.90
38118;DHT22;23928;47.562;7.508;2023-11-19T14:14:58;13.80;99.90
38118;DHT22;23928;47.562;7.508;2023-11-19T14:17:24;13.80;99.90
38118;DHT22;23928;47.562;7.508;2023-11-19T14:19:50;13.80;99.90
38118;DHT22;23928;47.562;7.508;2023-11-19T14:22:16;13.70;99.90
38118;DHT22;23928;47.562;7.508;2023-11-19T14:24:41;13.70;99.90
38118;DHT22;23928;47.562;7.508;2023-11-19T14:27:09;13.70;99.90
38118;DHT22;23928;47.562;7.508;2023-11-19T14:29:35;13.70;99.90
38118;DHT22;23928;47.562;7.508;2023-11-19T14:32:01;13.60;99.90
38118;DHT22;23928;47.562;7.508;2023-11-19T14:34:29;13.60;99.90
38118;DHT22;23928;47.562;7.508;2023-11-19T14:36:54;13.60;99.90
38118;DHT22;23928;47.562;7.508;2023-11-19T14:39:20;13.70;99.90
38118;DHT22;23928;47.562;7.508;2023-11-19T14:41:45;13.70;99.90
38118;DHT22;23928;47.562;7.508;2023-11-19T14:44:11;13.70;99.90
38118;DHT22;23928;47.562;7.508;2023-11-19T14:46:37;13.70;99.90
38118;DHT22;23928;47.562;7.508;2023-11-19T14:49:03;13.60;99.90
38118;DHT22;23928;47.562;7.508;2023-11-19T14:51:36;13.60;99.90
38118;DHT22;23928;47.562;7.508;2023-11-19T14:54:06;13.60;99.90
38118;DHT22;23928;47.562;7.508;2023-11-19T14:56:32;13.80;99.90
38118;DHT22;23928;47.562;7.508;2023-11-19T14:58:58;13.80;99.90
38118;DHT22;23928;47.562;7.508;2023-11-19T15:01:24;13.70;99.90
38118;DHT22;23928;47.562;7.508;2023-11-19T15:03:49;13.70;99.90
38118;DHT22;23928;47.562;7.508;2023-11-19T15:06:15;13.70;99.90
38118;DHT22;23928;47.562;7.508;2023-11-19T15:08:41;13.60;99.90
38118;DHT22;23928;47.562;7.508;2023-11-19T15:11:07;13.60;99.90
38118;DHT22;23928;47.562;7.508;2023-11-19T15:13:34;13.60;99.90
38118;DHT22;23928;47.562;7.508;2023-11-19T15:16:02;13.60;99.90
38118;DHT22;23928;47.562;7.508;2023-11-19T15:18:30;13.40;99.90
38118;DHT22;23928;47.562;7.508;2023-11-19T15:20:55;13.40;99.90
38118;DHT22;23928;47.562;7.508;2023-11-19T15:23:21;13.40;99.90
38118;DHT22;23928;47.562;7.508;2023-11-19T15:25:46;13.30;99.90
38118;DHT22;23928;47.562;7.508;2023-11-19T15:28:12;13.20;99.90
38118;DHT22;23928;47.562;7.508;2023-11-19T15:30:38;13.00;99.90
38118;DHT22;23928;47.562;7.508;2023-11-19T15:33:03;13.10;99.90
38118;DHT22;23928;47.562;7.508;2023-11-19T15:35:29;13.10;99.90
38118;DHT22;23928;47.562;7.508;2023-11-19T15:37:54;13.00;99.90
38118;DHT22;23928;47.562;7.508;2023-11-19T15:40:21;13.00;99.90
38118;DHT22;23928;47.562;7.508;2023-11-19T15:42:47;13.00;99.90
38118;DHT22;23928;47.562;7.508;2023-11-19T15:45:13;13.00;99.90
38118;DHT22;23928;47.562;7.508;2023-11-19T15:47:39;13.00;99.90
38118;DHT22;23928;47.562;7.508;2023-11-19T15:50:05;12.90;99.90
38118;DHT22;23928;47.562;7.508;2023-11-19T15:52:32;12.90;99.90
38118;DHT22;23928;47.562;7.508;2023-11-19T15:54:58;12.90;99.90
38118;DHT22;23928;47.562;7.508;2023-11-19T15:57:24;12.80;99.90
38118;DHT22;23928;47.562;7.508;2023-11-19T15:59:49;12.80;99.90
38118;DHT22;23928;47.562;7.508;2023-11-19T16:02:16;12.90;99.90